ITY9925 LIMF-LIRF
Flight info
| Callsign | ITY9925 |
|---|---|
| Flight time | N/A |
| Altitude | 35000 |
| Route | LAGEN1W/36 LAGEN DCT ANAKI DCT BAKRO DCT ELB DCT ELKAP ELKAP3A |
| Aircraft | A320/L-V/N |
Departure
| Time | N/A |
|---|---|
| Airport | Turin Airport (LIMF) |
Arrival
| Time | 2026-05-05 18:25 |
|---|---|
| Airport | Rome–Fiumicino Leonardo da Vinci International Airport (LIRF) |
| Time | Latitude | Longitude | Altitude | Speed | Heading |
|---|---|---|---|---|---|
| 2026-05-05 18:12 | 42.70871 | 10.70038 | 4998 ft | 262 kts | 138° |
| 2026-05-05 18:13 | 42.67776 | 10.74347 | 5006 ft | 260 kts | 138° |
| 2026-05-05 18:13 | 42.63641 | 10.82529 | 4980 ft | 265 kts | 124° |
| 2026-05-05 18:13 | 42.59837 | 10.91123 | 5005 ft | 263 kts | 126° |
| 2026-05-05 18:13 | 42.55949 | 10.99547 | 5026 ft | 266 kts | 125° |
| 2026-05-05 18:14 | 42.52060 | 11.07983 | 5008 ft | 265 kts | 126° |
| 2026-05-05 18:14 | 42.48119 | 11.16490 | 5002 ft | 265 kts | 126° |
| 2026-05-05 18:14 | 42.44221 | 11.24985 | 4995 ft | 267 kts | 116° |
| 2026-05-05 18:14 | 42.43021 | 11.35084 | 4970 ft | 268 kts | 102° |
| 2026-05-05 18:15 | 42.41804 | 11.45149 | 4678 ft | 268 kts | 103° |
| 2026-05-05 18:15 | 42.40589 | 11.54965 | 3017 ft | 259 kts | 103° |
| 2026-05-05 18:15 | 42.39421 | 11.64310 | 2934 ft | 261 kts | 104° |
| 2026-05-05 18:15 | 42.38350 | 11.72861 | 3131 ft | 235 kts | 105° |
| 2026-05-05 18:16 | 42.37273 | 11.81354 | 3036 ft | 221 kts | 106° |
| 2026-05-05 18:16 | 42.36169 | 11.89962 | 2969 ft | 217 kts | 105° |
| 2026-05-05 18:16 | 42.32212 | 11.95326 | 3083 ft | 214 kts | 166° |
| 2026-05-05 18:16 | 42.26565 | 11.97740 | 3019 ft | 205 kts | 165° |
| 2026-05-05 18:17 | 42.20923 | 12.00151 | 2964 ft | 187 kts | 165° |
| 2026-05-05 18:17 | 42.15802 | 12.02341 | 2976 ft | 180 kts | 165° |
| 2026-05-05 18:17 | 42.11202 | 12.04952 | 2955 ft | 176 kts | 140° |
| 2026-05-05 18:17 | 42.09978 | 12.06853 | 4316 ft | 153 kts | 133° |
| 2026-05-05 18:18 | 42.09366 | 12.07965 | 4368 ft | 151 kts | 133° |
| 2026-05-05 18:18 | 42.08520 | 12.09228 | 4202 ft | 210 kts | 139° |
| 2026-05-05 18:18 | 42.07463 | 12.10661 | 4031 ft | 209 kts | 138° |
| 2026-05-05 18:18 | 42.06478 | 12.11990 | 3955 ft | 188 kts | 139° |
| 2026-05-05 18:19 | 42.05586 | 12.13242 | 3952 ft | 181 kts | 138° |
| 2026-05-05 18:19 | 42.04772 | 12.14418 | 3891 ft | 164 kts | 138° |
| 2026-05-05 18:19 | 42.04018 | 12.15513 | 3651 ft | 159 kts | 138° |
| 2026-05-05 18:19 | 42.03271 | 12.16596 | 3269 ft | 157 kts | 139° |
| 2026-05-05 18:20 | 42.02539 | 12.17656 | 3040 ft | 152 kts | 138° |
| 2026-05-05 18:20 | 42.01755 | 12.18617 | 3034 ft | 152 kts | 149° |
| 2026-05-05 18:20 | 42.00809 | 12.19213 | 3021 ft | 150 kts | 162° |
| 2026-05-05 18:20 | 41.99830 | 12.19695 | 3012 ft | 149 kts | 164° |
| 2026-05-05 18:21 | 41.98894 | 12.20119 | 2906 ft | 136 kts | 165° |
| 2026-05-05 18:21 | 41.98005 | 12.20506 | 2766 ft | 132 kts | 165° |
| 2026-05-05 18:21 | 41.97144 | 12.20874 | 2605 ft | 130 kts | 163° |
| 2026-05-05 18:21 | 41.96289 | 12.21237 | 2440 ft | 128 kts | 164° |
| 2026-05-05 18:22 | 41.95439 | 12.21595 | 2277 ft | 128 kts | 164° |
| 2026-05-05 18:22 | 41.94582 | 12.21956 | 2104 ft | 128 kts | 164° |
| 2026-05-05 18:22 | 41.93739 | 12.22311 | 1926 ft | 127 kts | 164° |
| 2026-05-05 18:22 | 41.92898 | 12.22665 | 1758 ft | 126 kts | 164° |
| 2026-05-05 18:23 | 41.92062 | 12.23016 | 1585 ft | 126 kts | 162° |
| 2026-05-05 18:23 | 41.91238 | 12.23362 | 1420 ft | 125 kts | 161° |
| 2026-05-05 18:23 | 41.90404 | 12.23712 | 1265 ft | 124 kts | 164° |
| 2026-05-05 18:23 | 41.89582 | 12.24057 | 1084 ft | 123 kts | 164° |
| 2026-05-05 18:24 | 41.88769 | 12.24398 | 919 ft | 125 kts | 163° |
| 2026-05-05 18:24 | 41.87913 | 12.24758 | 744 ft | 129 kts | 162° |
| 2026-05-05 18:24 | 41.87067 | 12.25113 | 573 ft | 130 kts | 162° |
| 2026-05-05 18:24 | 41.86199 | 12.25477 | 405 ft | 129 kts | 162° |
| 2026-05-05 18:25 | 41.85357 | 12.25832 | 237 ft | 129 kts | 162° |
| 2026-05-05 18:25 | 41.84785 | 12.26073 | 119 ft | 130 kts | 162° |
| 2026-05-05 18:25 | 41.83673 | 12.26538 | 16 ft | 104 kts | 161° |
| 2026-05-05 18:25 | 41.83271 | 12.26712 | 11 ft | 17 kts | 162° |
| 2026-05-05 18:26 | 41.83207 | 12.26738 | 11 ft | 15 kts | 163° |
| 2026-05-05 18:26 | 41.83079 | 12.26787 | 12 ft | 23 kts | 162° |